BCS507 EETN-EFHK
Flight info
| Callsign | BCS507 |
|---|---|
| Flight time | 0h 21m |
| Altitude | 11000 |
| Route | INTOR |
| Aircraft | A333/H-SDE3GHIJ2J3J5M1RVWXY/LB2D1 |
Departure
| Time | 2026-05-07 20:50 |
|---|---|
| Airport | Lennart Meri Tallinn Airport (EETN) |
Arrival
| Time | 2026-05-07 21:11 |
|---|---|
| Airport | Helsinki Vantaa Airport (EFHK) |
| Time | Latitude | Longitude | Altitude | Speed | Heading |
|---|---|---|---|---|---|
| 2026-05-07 20:17 | 59.41044 | 24.85518 | 166 ft | 0 kts | 180° |
| 2026-05-07 20:40 | 59.41045 | 24.85518 | 166 ft | 2 kts | 180° |
| 2026-05-07 20:41 | 59.41070 | 24.85518 | 166 ft | 4 kts | 180° |
| 2026-05-07 20:41 | 59.41097 | 24.85518 | 166 ft | 4 kts | 178° |
| 2026-05-07 20:41 | 59.41123 | 24.85511 | 166 ft | 4 kts | 156° |
| 2026-05-07 20:41 | 59.41144 | 24.85482 | 166 ft | 4 kts | 118° |
| 2026-05-07 20:42 | 59.41149 | 24.85453 | 166 ft | 1 kts | 90° |
| 2026-05-07 20:46 | 59.41149 | 24.85457 | 166 ft | 1 kts | 90° |
| 2026-05-07 20:46 | 59.41148 | 24.85502 | 166 ft | 5 kts | 90° |
| 2026-05-07 20:46 | 59.41148 | 24.85594 | 166 ft | 9 kts | 90° |
| 2026-05-07 20:46 | 59.41148 | 24.85733 | 166 ft | 12 kts | 90° |
| 2026-05-07 20:47 | 59.41147 | 24.85915 | 166 ft | 15 kts | 90° |
| 2026-05-07 20:47 | 59.41147 | 24.86137 | 166 ft | 18 kts | 90° |
| 2026-05-07 20:47 | 59.41146 | 24.86395 | 166 ft | 20 kts | 90° |
| 2026-05-07 20:47 | 59.41146 | 24.86634 | 166 ft | 10 kts | 86° |
| 2026-05-07 20:48 | 59.41197 | 24.86707 | 166 ft | 11 kts | 359° |
| 2026-05-07 20:48 | 59.41264 | 24.86708 | 166 ft | 7 kts | 0° |
| 2026-05-07 20:48 | 59.41311 | 24.86685 | 166 ft | 6 kts | 313° |
| 2026-05-07 20:48 | 59.41315 | 24.86616 | 165 ft | 0 kts | 271° |
| 2026-05-07 20:49 | 59.41316 | 24.86561 | 164 ft | 11 kts | 271° |
| 2026-05-07 20:49 | 59.41319 | 24.86029 | 163 ft | 75 kts | 270° |
| 2026-05-07 20:49 | 59.41322 | 24.84536 | 165 ft | 142 kts | 270° |
| 2026-05-07 20:50 | 59.41326 | 24.82263 | 429 ft | 184 kts | 270° |
| 2026-05-07 20:50 | 59.41332 | 24.79649 | 1345 ft | 194 kts | 272° |
| 2026-05-07 20:50 | 59.41500 | 24.77115 | 2641 ft | 181 kts | 298° |
| 2026-05-07 20:50 | 59.42391 | 24.75598 | 3718 ft | 174 kts | 345° |
| 2026-05-07 20:51 | 59.43666 | 24.75685 | 4313 ft | 200 kts | 13° |
| 2026-05-07 20:51 | 59.45102 | 24.76475 | 4816 ft | 225 kts | 16° |
| 2026-05-07 20:51 | 59.46655 | 24.77288 | 5494 ft | 238 kts | 14° |
| 2026-05-07 20:51 | 59.48319 | 24.78024 | 6271 ft | 250 kts | 12° |
| 2026-05-07 20:52 | 59.50041 | 24.78693 | 7284 ft | 255 kts | 10° |
| 2026-05-07 20:52 | 59.51809 | 24.79333 | 8273 ft | 262 kts | 8° |
| 2026-05-07 20:52 | 59.53631 | 24.79965 | 9255 ft | 270 kts | 7° |
| 2026-05-07 20:52 | 59.55502 | 24.80601 | 10047 ft | 275 kts | 6° |
| 2026-05-07 20:53 | 59.57402 | 24.81252 | 10428 ft | 278 kts | 8° |
| 2026-05-07 20:53 | 59.59187 | 24.82789 | 10671 ft | 287 kts | 31° |
| 2026-05-07 20:53 | 59.60803 | 24.85146 | 10922 ft | 290 kts | 33° |
| 2026-05-07 20:53 | 59.62397 | 24.87617 | 11105 ft | 292 kts | 34° |
| 2026-05-07 20:54 | 59.63999 | 24.90101 | 11127 ft | 293 kts | 33° |
| 2026-05-07 20:54 | 59.65611 | 24.92575 | 11124 ft | 294 kts | 33° |
| 2026-05-07 20:54 | 59.67234 | 24.95048 | 11126 ft | 295 kts | 33° |
| 2026-05-07 20:54 | 59.68865 | 24.97522 | 11126 ft | 296 kts | 33° |
| 2026-05-07 20:55 | 59.70500 | 25.00000 | 11121 ft | 296 kts | 33° |
| 2026-05-07 20:55 | 59.72133 | 25.02474 | 11122 ft | 296 kts | 33° |
| 2026-05-07 20:55 | 59.73767 | 25.04951 | 11122 ft | 296 kts | 33° |
| 2026-05-07 20:55 | 59.75402 | 25.07431 | 11121 ft | 296 kts | 33° |
| 2026-05-07 20:56 | 59.77035 | 25.09910 | 11129 ft | 296 kts | 33° |
| 2026-05-07 20:56 | 59.78649 | 25.12363 | 11129 ft | 296 kts | 33° |
| 2026-05-07 20:56 | 59.80283 | 25.14849 | 11129 ft | 296 kts | 33° |
| 2026-05-07 20:56 | 59.81920 | 25.17331 | 11134 ft | 295 kts | 31° |
| 2026-05-07 20:57 | 59.83671 | 25.19391 | 11127 ft | 291 kts | 21° |
| 2026-05-07 20:57 | 59.85518 | 25.21043 | 11127 ft | 290 kts | 18° |
| 2026-05-07 20:57 | 59.87375 | 25.22613 | 11129 ft | 290 kts | 18° |
| 2026-05-07 20:57 | 59.89254 | 25.24052 | 11129 ft | 287 kts | 10° |
| 2026-05-07 20:58 | 59.91205 | 25.24439 | 11000 ft | 278 kts | 349° |
| 2026-05-07 20:58 | 59.93070 | 25.23612 | 10763 ft | 273 kts | 339° |
| 2026-05-07 20:58 | 59.94879 | 25.22465 | 10521 ft | 273 kts | 339° |
| 2026-05-07 20:58 | 59.96674 | 25.21283 | 10241 ft | 270 kts | 339° |
| 2026-05-07 20:59 | 59.98446 | 25.20125 | 9923 ft | 265 kts | 339° |
| 2026-05-07 20:59 | 60.00185 | 25.19000 | 9597 ft | 261 kts | 340° |
| 2026-05-07 20:59 | 60.01899 | 25.17898 | 9258 ft | 257 kts | 340° |
| 2026-05-07 20:59 | 60.03587 | 25.16815 | 8938 ft | 253 kts | 340° |
| 2026-05-07 21:00 | 60.05255 | 25.15747 | 8619 ft | 250 kts | 340° |
| 2026-05-07 21:00 | 60.06907 | 25.14691 | 8302 ft | 248 kts | 341° |
| 2026-05-07 21:00 | 60.08539 | 25.13649 | 7971 ft | 245 kts | 341° |
| 2026-05-07 21:00 | 60.10155 | 25.12617 | 7662 ft | 243 kts | 341° |
| 2026-05-07 21:01 | 60.11759 | 25.11592 | 7353 ft | 241 kts | 341° |
| 2026-05-07 21:01 | 60.13308 | 25.10365 | 7037 ft | 239 kts | 330° |
| 2026-05-07 21:01 | 60.14577 | 25.08267 | 6728 ft | 237 kts | 308° |
| 2026-05-07 21:01 | 60.15438 | 25.05460 | 6435 ft | 236 kts | 297° |
| 2026-05-07 21:02 | 60.16159 | 25.02501 | 6116 ft | 235 kts | 296° |
| 2026-05-07 21:02 | 60.16857 | 24.99535 | 5793 ft | 234 kts | 296° |
| 2026-05-07 21:02 | 60.17553 | 24.96583 | 5482 ft | 234 kts | 296° |
| 2026-05-07 21:02 | 60.18056 | 24.93493 | 5168 ft | 234 kts | 279° |
| 2026-05-07 21:03 | 60.17921 | 24.90238 | 4851 ft | 237 kts | 253° |
| 2026-05-07 21:03 | 60.17076 | 24.87387 | 4517 ft | 240 kts | 233° |
| 2026-05-07 21:03 | 60.15963 | 24.84887 | 4219 ft | 240 kts | 229° |
| 2026-05-07 21:03 | 60.14811 | 24.82447 | 3878 ft | 241 kts | 229° |
| 2026-05-07 21:04 | 60.13655 | 24.79998 | 3544 ft | 242 kts | 229° |
| 2026-05-07 21:04 | 60.12508 | 24.77549 | 3236 ft | 239 kts | 231° |
| 2026-05-07 21:04 | 60.11710 | 24.74804 | 2901 ft | 227 kts | 259° |
| 2026-05-07 21:04 | 60.11746 | 24.71775 | 2584 ft | 213 kts | 292° |
| 2026-05-07 21:05 | 60.12437 | 24.69273 | 2411 ft | 199 kts | 309° |
| 2026-05-07 21:05 | 60.13468 | 24.67626 | 2304 ft | 188 kts | 343° |
| 2026-05-07 21:05 | 60.14747 | 24.67597 | 2308 ft | 186 kts | 12° |
| 2026-05-07 21:05 | 60.15991 | 24.68337 | 2300 ft | 186 kts | 13° |
| 2026-05-07 21:06 | 60.17242 | 24.68884 | 2292 ft | 179 kts | 10° |
| 2026-05-07 21:06 | 60.18416 | 24.69358 | 2304 ft | 167 kts | 10° |
| 2026-05-07 21:06 | 60.19551 | 24.69813 | 2301 ft | 166 kts | 10° |
| 2026-05-07 21:06 | 60.20683 | 24.70268 | 2300 ft | 166 kts | 10° |
| 2026-05-07 21:07 | 60.21811 | 24.70771 | 2292 ft | 167 kts | 17° |
| 2026-05-07 21:07 | 60.22808 | 24.72018 | 2300 ft | 172 kts | 37° |
| 2026-05-07 21:07 | 60.23654 | 24.73734 | 2295 ft | 174 kts | 42° |
| 2026-05-07 21:07 | 60.24482 | 24.75512 | 2190 ft | 177 kts | 42° |
| 2026-05-07 21:08 | 60.25345 | 24.77392 | 1933 ft | 186 kts | 43° |
| 2026-05-07 21:08 | 60.26225 | 24.79314 | 1666 ft | 185 kts | 43° |
| 2026-05-07 21:08 | 60.27076 | 24.81173 | 1392 ft | 173 kts | 43° |
| 2026-05-07 21:08 | 60.27856 | 24.82878 | 1159 ft | 158 kts | 43° |
| 2026-05-07 21:09 | 60.28574 | 24.84444 | 943 ft | 146 kts | 43° |
| 2026-05-07 21:09 | 60.29242 | 24.85912 | 744 ft | 138 kts | 45° |
| 2026-05-07 21:09 | 60.29869 | 24.87293 | 557 ft | 130 kts | 43° |
| 2026-05-07 21:09 | 60.30482 | 24.88606 | 411 ft | 129 kts | 45° |
| 2026-05-07 21:10 | 60.31090 | 24.89941 | 254 ft | 128 kts | 45° |
| 2026-05-07 21:10 | 60.31695 | 24.91252 | 154 ft | 126 kts | 45° |
| 2026-05-07 21:10 | 60.32211 | 24.92390 | 169 ft | 95 kts | 47° |
| 2026-05-07 21:10 | 60.32608 | 24.93258 | 183 ft | 75 kts | 49° |
| 2026-05-07 21:11 | 60.32920 | 24.93951 | 204 ft | 61 kts | 48° |
| 2026-05-07 21:11 | 60.33053 | 24.94373 | 197 ft | 20 kts | 96° |
| 2026-05-07 21:11 | 60.33048 | 24.94477 | 190 ft | 0 kts | 94° |
| 2026-05-07 21:12 | 60.33047 | 24.94508 | 189 ft | 6 kts | 94° |
| 2026-05-07 21:12 | 60.33044 | 24.94640 | 187 ft | 13 kts | 92° |
| 2026-05-07 21:12 | 60.33046 | 24.94809 | 183 ft | 14 kts | 74° |
| 2026-05-07 21:13 | 60.33096 | 24.94955 | 182 ft | 12 kts | 60° |
| 2026-05-07 21:13 | 60.33109 | 24.95076 | 182 ft | 14 kts | 82° |
| 2026-05-07 21:13 | 60.33156 | 24.95271 | 182 ft | 17 kts | 49° |
| 2026-05-07 21:13 | 60.33208 | 24.95463 | 196 ft | 15 kts | 94° |
| 2026-05-07 21:14 | 60.33138 | 24.95646 | 184 ft | 19 kts | 136° |
| 2026-05-07 21:14 | 60.33028 | 24.95824 | 187 ft | 21 kts | 150° |
| 2026-05-07 21:14 | 60.32883 | 24.95994 | 178 ft | 27 kts | 150° |
| 2026-05-07 21:14 | 60.32761 | 24.96135 | 176 ft | 12 kts | 150° |
| 2026-05-07 21:15 | 60.32679 | 24.96231 | 176 ft | 15 kts | 150° |
| 2026-05-07 21:15 | 60.32579 | 24.96348 | 177 ft | 18 kts | 150° |
| 2026-05-07 21:15 | 60.32465 | 24.96481 | 177 ft | 20 kts | 150° |
| 2026-05-07 21:15 | 60.32336 | 24.96632 | 174 ft | 24 kts | 150° |
| 2026-05-07 21:16 | 60.32176 | 24.96820 | 170 ft | 24 kts | 149° |
| 2026-05-07 21:16 | 60.32029 | 24.96984 | 170 ft | 18 kts | 152° |
| 2026-05-07 21:16 | 60.31938 | 24.97085 | 170 ft | 11 kts | 141° |
| 2026-05-07 21:16 | 60.31920 | 24.97238 | 167 ft | 13 kts | 126° |
| 2026-05-07 21:17 | 60.31827 | 24.97344 | 165 ft | 17 kts | 153° |
| 2026-05-07 21:17 | 60.31706 | 24.97468 | 163 ft | 22 kts | 153° |
| 2026-05-07 21:17 | 60.31560 | 24.97617 | 159 ft | 26 kts | 153° |
| 2026-05-07 21:17 | 60.31394 | 24.97786 | 160 ft | 28 kts | 153° |
| 2026-05-07 21:18 | 60.31219 | 24.97965 | 162 ft | 27 kts | 153° |
| 2026-05-07 21:18 | 60.31079 | 24.98113 | 162 ft | 20 kts | 153° |
| 2026-05-07 21:18 | 60.30986 | 24.98215 | 162 ft | 14 kts | 135° |
| 2026-05-07 21:18 | 60.30998 | 24.98408 | 159 ft | 17 kts | 64° |
| 2026-05-07 21:19 | 60.31055 | 24.98633 | 157 ft | 14 kts | 63° |
| 2026-05-07 21:19 | 60.31093 | 24.98782 | 155 ft | 10 kts | 63° |
| 2026-05-07 21:19 | 60.31101 | 24.98814 | 155 ft | 1 kts | 63° |
| 2026-05-07 21:19 | 60.31101 | 24.98815 | 155 ft | 0 kts | 63° |
| 2026-05-07 21:21 | 60.31105 | 24.98831 | 155 ft | 3 kts | 64° |
| 2026-05-07 21:21 | 60.31108 | 24.98893 | 155 ft | 5 kts | 101° |
| 2026-05-07 21:21 | 60.31080 | 24.98949 | 155 ft | 7 kts | 149° |
| 2026-05-07 21:21 | 60.31026 | 24.99005 | 156 ft | 11 kts | 153° |
| 2026-05-07 21:22 | 60.30951 | 24.99082 | 156 ft | 14 kts | 153° |
| 2026-05-07 21:22 | 60.30879 | 24.99156 | 156 ft | 8 kts | 153° |
| 2026-05-07 21:22 | 60.30820 | 24.99141 | 155 ft | 10 kts | 219° |
| 2026-05-07 21:22 | 60.30780 | 24.99013 | 157 ft | 12 kts | 242° |
| 2026-05-07 21:23 | 60.30743 | 24.98875 | 161 ft | 10 kts | 242° |
| 2026-05-07 21:23 | 60.30703 | 24.98750 | 162 ft | 12 kts | 234° |
| 2026-05-07 21:23 | 60.30657 | 24.98572 | 161 ft | 15 kts | 264° |
| 2026-05-07 21:23 | 60.30722 | 24.98431 | 162 ft | 15 kts | 336° |
| 2026-05-07 21:24 | 60.30810 | 24.98352 | 163 ft | 12 kts | 336° |
| 2026-05-07 21:24 | 60.30893 | 24.98278 | 162 ft | 9 kts | 336° |
| 2026-05-07 21:24 | 60.30932 | 24.98194 | 163 ft | 7 kts | 266° |
| 2026-05-07 21:24 | 60.30923 | 24.98128 | 163 ft | 1 kts | 252° |
| 2026-05-07 21:25 | 60.30918 | 24.98102 | 164 ft | 3 kts | 253° |
| 2026-05-07 21:25 | 60.30921 | 24.98086 | 164 ft | 1 kts | 288° |
| 2026-05-07 21:25 | 60.30927 | 24.98072 | 164 ft | 2 kts | 304° |
| 2026-05-07 21:25 | 60.30941 | 24.98048 | 164 ft | 3 kts | 322° |
| 2026-05-07 21:26 | 60.30958 | 24.98027 | 164 ft | 4 kts | 329° |
| 2026-05-07 21:26 | 60.30969 | 24.98013 | 164 ft | 0 kts | 329° |